Time;durP1;ratioP1;P1;durP2;ratioP2;P2;SDS_P1;SDS_P2;PMS_P1;PMS_P2;Temp;Humidity;BMP_temperature;BMP_pressure;BME280_temperature;BME280_humidity;BME280_pressure;Samples;Min_cycle;Max_cycle;Signal;HPM_P1;HPM_P2
2022/07/04 00:00:19;;;;;;;0.93;0.35;;;21.50;60.00;;;;;;5133080;27;20099;-71
2022/07/04 00:02:46;;;;;;;0.43;0.10;;;21.60;60.00;;;;;;5132890;27;20043;-71
2022/07/04 00:05:12;;;;;;;0.40;0.10;;;21.50;60.00;;;;;;5134101;27;20039;-71
2022/07/04 00:07:39;;;;;;;0.47;0.20;;;21.50;60.00;;;;;;5132536;27;20077;-71
2022/07/04 00:10:07;;;;;;;0.65;0.25;;;21.50;60.00;;;;;;5132821;27;20130;-71
2022/07/04 00:12:36;;;;;;;0.75;0.15;;;21.50;60.00;;;;;;5132666;27;20035;-71
2022/07/04 00:15:03;;;;;;;0.50;0.10;;;21.50;60.00;;;;;;5132140;27;20495;-71
2022/07/04 00:17:29;;;;;;;0.40;0.10;;;21.50;60.00;;;;;;5132320;27;20100;-71
2022/07/04 00:19:55;;;;;;;0.40;0.10;;;21.50;60.00;;;;;;5133740;27;20039;-71
2022/07/04 00:22:21;;;;;;;0.60;0.20;;;21.50;60.00;;;;;;5111896;27;20483;-71
2022/07/04 00:24:46;;;;;;;0.70;0.17;;;21.50;60.00;;;;;;5091012;28;20043;-71
2022/07/04 00:27:12;;;;;;;0.50;0.20;;;21.40;60.00;;;;;;5091215;28;20061;-71
2022/07/04 00:29:38;;;;;;;1.10;0.45;;;21.40;60.00;;;;;;5091397;28;20039;-72
2022/07/04 00:32:06;;;;;;;0.65;0.20;;;21.50;60.00;;;;;;5092487;28;20040;-71
2022/07/04 00:34:32;;;;;;;1.08;0.20;;;21.40;60.00;;;;;;5104529;28;20040;-71
2022/07/04 00:36:58;;;;;;;0.60;0.20;;;21.40;60.00;;;;;;5111587;28;20375;-71
2022/07/04 00:39:23;;;;;;;2.17;0.10;;;21.40;60.00;;;;;;5111743;28;20074;-71
2022/07/04 00:41:49;;;;;;;0.40;0.10;;;21.40;60.10;;;;;;5112726;28;20608;-71
2022/07/04 00:44:16;;;;;;;0.45;0.10;;;21.40;60.00;;;;;;5121061;27;20122;-71
2022/07/04 00:46:43;;;;;;;0.45;0.10;;;21.40;60.00;;;;;;5131908;27;20031;-71
2022/07/04 00:49:09;;;;;;;0.77;0.15;;;21.40;60.00;;;;;;5131609;27;20046;-71
2022/07/04 00:51:38;;;;;;;0.65;0.28;;;21.40;60.00;;;;;;5131908;27;20471;-71
2022/07/04 00:54:06;;;;;;;1.05;0.13;;;21.30;60.00;;;;;;5132021;27;20118;-71
2022/07/04 00:56:32;;;;;;;0.57;0.20;;;21.30;60.00;;;;;;5131636;27;20448;-71
2022/07/04 00:58:59;;;;;;;0.93;0.22;;;21.30;59.90;;;;;;5131677;27;20039;-71
2022/07/04 01:01:25;;;;;;;1.55;0.20;;;21.30;60.00;;;;;;5131739;27;20050;-71
2022/07/04 01:03:52;;;;;;;0.40;0.20;;;21.30;60.00;;;;;;5131898;27;20051;-71
2022/07/04 01:06:19;;;;;;;0.43;0.10;;;21.30;60.70;;;;;;5131879;27;20402;-71
2022/07/04 01:08:45;;;;;;;1.85;0.20;;;21.30;60.00;;;;;;5131562;27;20043;-71
2022/07/04 01:11:12;;;;;;;0.50;0.20;;;21.30;60.00;;;;;;5131857;27;20406;-71
2022/07/04 01:13:38;;;;;;;0.47;0.20;;;21.30;59.90;;;;;;5131617;28;20071;-71
2022/07/04 01:16:04;;;;;;;1.05;0.50;;;21.30;59.90;;;;;;5131204;28;20078;-71
2022/07/04 01:18:30;;;;;;;0.98;0.35;;;21.20;59.90;;;;;;5132743;28;20088;-71
2022/07/04 01:20:56;;;;;;;0.43;0.20;;;21.20;59.90;;;;;;5132837;28;20114;-71
2022/07/04 01:23:22;;;;;;;0.30;0.10;;;21.30;60.00;;;;;;5131781;28;20165;-72
2022/07/04 01:25:49;;;;;;;0.30;0.10;;;21.20;59.90;;;;;;5131721;28;20430;-71
2022/07/04 01:28:16;;;;;;;0.55;0.10;;;21.20;59.90;;;;;;5131449;28;20044;-71
2022/07/04 01:30:41;;;;;;;0.93;0.20;;;21.20;59.90;;;;;;5132683;28;20514;-71
2022/07/04 01:33:07;;;;;;;0.40;0.15;;;21.20;59.90;;;;;;5131685;28;20031;-71
2022/07/04 01:35:33;;;;;;;0.60;0.20;;;21.20;59.90;;;;;;5131134;28;20452;-71
2022/07/04 01:37:59;;;;;;;0.20;0.10;;;21.20;59.90;;;;;;5132772;28;20114;-71
2022/07/04 01:40:24;;;;;;;0.50;0.20;;;21.20;59.90;;;;;;5132633;28;20039;-71
2022/07/04 01:42:50;;;;;;;0.38;0.17;;;21.10;59.90;;;;;;5131455;28;20045;-71
2022/07/04 01:45:16;;;;;;;0.40;0.20;;;21.20;59.90;;;;;;5114074;28;20096;-71
2022/07/04 01:47:42;;;;;;;0.28;0.13;;;21.10;59.90;;;;;;5110765;28;20051;-71
2022/07/04 01:50:12;;;;;;;0.47;0.17;;;21.10;59.80;;;;;;5111420;28;20044;-71
2022/07/04 01:52:39;;;;;;;0.32;0.17;;;21.20;59.90;;;;;;5110789;28;20035;-71
2022/07/04 01:55:06;;;;;;;1.00;0.20;;;21.10;59.90;;;;;;5110667;28;20043;-71
2022/07/04 01:57:32;;;;;;;0.50;0.28;;;21.10;59.90;;;;;;5110478;28;20403;-72
2022/07/04 02:02:43;;;;;;;1.15;0.20;;;21.10;59.90;;;;;;5113315;28;20047;-71
2022/07/04 02:05:09;;;;;;;0.30;0.10;;;21.10;59.80;;;;;;5114845;28;20031;-71
2022/07/04 02:07:35;;;;;;;0.95;0.20;;;21.10;59.90;;;;;;5115639;28;20043;-72
2022/07/04 02:10:01;;;;;;;0.85;0.10;;;21.10;59.80;;;;;;5114005;28;20134;-71
2022/07/04 02:15:12;;;;;;;0.30;0.10;;;21.10;59.90;;;;;;5120618;27;20054;-71
2022/07/04 02:17:38;;;;;;;0.77;0.20;;;21.00;60.50;;;;;;5134757;27;20401;-72
2022/07/04 02:20:06;;;;;;;0.73;0.20;;;21.00;59.90;;;;;;5134753;27;20096;-72
2022/07/04 02:22:32;;;;;;;0.50;0.20;;;21.00;59.80;;;;;;5134934;27;20035;-71
2022/07/04 02:24:57;;;;;;;1.38;0.20;;;21.00;59.80;;;;;;5134833;27;20050;-72
2022/07/04 02:27:23;;;;;;;0.70;0.20;;;21.00;59.80;;;;;;5134862;27;20118;-71
2022/07/04 02:29:55;;;;;;;0.50;0.20;;;21.00;59.80;;;;;;5134896;27;20035;-71
2022/07/04 02:32:20;;;;;;;0.17;0.10;;;21.00;59.80;;;;;;5134468;27;20039;-71
2022/07/04 02:34:46;;;;;;;0.38;0.10;;;21.00;59.80;;;;;;5134378;27;20046;-71
2022/07/04 02:37:12;;;;;;;0.30;0.20;;;21.00;59.80;;;;;;5134412;27;20227;-71
2022/07/04 02:39:40;;;;;;;0.50;0.10;;;21.00;59.80;;;;;;5135663;27;20114;-71
2022/07/04 02:42:06;;;;;;;0.93;0.30;;;21.00;59.80;;;;;;5134522;27;20039;-71
2022/07/04 02:44:31;;;;;;;0.55;0.10;;;20.90;59.80;;;;;;5134673;27;20038;-71
2022/07/04 02:46:57;;;;;;;0.40;0.15;;;21.00;59.80;;;;;;5134577;27;20063;-71
2022/07/04 02:49:23;;;;;;;0.38;0.17;;;20.90;59.80;;;;;;5134696;27;20039;-71
2022/07/04 02:51:49;;;;;;;0.30;0.20;;;20.90;59.80;;;;;;5134404;27;20053;-71
2022/07/04 02:54:15;;;;;;;0.30;0.20;;;20.90;59.70;;;;;;5135293;27;20487;-71
2022/07/04 02:56:41;;;;;;;1.65;0.20;;;20.90;59.70;;;;;;5134033;27;20035;-71
2022/07/04 02:59:07;;;;;;;0.45;0.10;;;20.90;59.70;;;;;;5134260;27;20467;-72
2022/07/04 03:01:32;;;;;;;0.45;0.30;;;20.90;59.70;;;;;;5134480;27;20406;-71
2022/07/04 03:03:58;;;;;;;0.93;0.20;;;20.90;59.70;;;;;;5135503;27;20035;-71
2022/07/04 03:06:24;;;;;;;0.30;0.15;;;20.90;59.70;;;;;;5135207;27;20042;-71
2022/07/04 03:08:52;;;;;;;0.20;0.10;;;20.80;59.70;;;;;;5133724;27;20505;-71
2022/07/04 03:11:18;;;;;;;0.28;0.15;;;20.90;59.70;;;;;;5133991;27;20050;-71
2022/07/04 03:13:44;;;;;;;0.32;0.20;;;20.90;59.70;;;;;;5133609;27;20518;-72
2022/07/04 03:16:10;;;;;;;0.20;0.10;;;20.80;59.60;;;;;;5136647;27;20047;-71
2022/07/04 03:18:36;;;;;;;0.50;0.15;;;20.80;59.60;;;;;;5137231;27;20042;-71
2022/07/04 03:21:04;;;;;;;0.17;0.17;;;20.80;59.70;;;;;;5137120;27;20077;-71
2022/07/04 03:23:31;;;;;;;1.25;0.17;;;20.80;59.60;;;;;;5136928;27;20581;-71
2022/07/04 03:25:56;;;;;;;0.28;0.10;;;20.80;59.60;;;;;;5136992;27;20043;-71
2022/07/04 03:28:25;;;;;;;0.57;0.10;;;20.80;59.60;;;;;;5137021;27;20039;-71
2022/07/04 03:30:51;;;;;;;0.50;0.20;;;20.80;59.60;;;;;;5137075;27;20049;-71
2022/07/04 03:33:17;;;;;;;0.60;0.10;;;20.80;59.60;;;;;;5155310;27;20046;-71
2022/07/04 03:35:43;;;;;;;0.35;0.20;;;20.80;59.60;;;;;;5139899;27;20039;-71
2022/07/04 03:38:09;;;;;;;0.20;0.10;;;20.80;59.60;;;;;;5155153;27;20038;-71
2022/07/04 03:40:35;;;;;;;0.45;0.17;;;20.80;59.60;;;;;;5155058;27;20485;-71
2022/07/04 03:43:02;;;;;;;0.30;0.10;;;20.80;59.60;;;;;;5155571;27;20146;-71
2022/07/04 03:45:29;;;;;;;0.20;0.10;;;20.80;59.60;;;;;;5154908;27;20046;-71
2022/07/04 03:47:54;;;;;;;0.60;0.17;;;20.80;59.60;;;;;;5132521;27;20046;-71
2022/07/04 03:50:20;;;;;;;0.30;0.15;;;20.80;59.60;;;;;;5116154;27;20529;-71
2022/07/04 03:52:46;;;;;;;0.30;0.10;;;20.70;59.50;;;;;;5098575;27;20455;-71
2022/07/04 03:55:11;;;;;;;0.50;0.20;;;20.70;59.50;;;;;;5115506;27;20043;-71
2022/07/04 03:57:37;;;;;;;0.82;0.10;;;20.80;59.60;;;;;;5134140;27;20046;-71
2022/07/04 04:00:04;;;;;;;0.32;0.20;;;20.70;59.50;;;;;;5115607;27;20037;-71
2022/07/04 04:02:29;;;;;;;0.80;0.20;;;20.70;59.50;;;;;;5115962;27;20035;-71
2022/07/04 04:05:26;;;;;;;0.30;0.10;;;20.70;59.50;;;;;;5115565;27;20468;-71
2022/07/04 04:07:41;;;;;;;0.88;0.10;;;20.70;59.50;;;;;;5115555;27;20057;-71
2022/07/04 04:10:07;;;;;;;0.50;0.20;;;20.70;59.50;;;;;;5115751;27;20027;-71
2022/07/04 04:12:32;;;;;;;0.20;0.10;;;20.70;59.50;;;;;;5115744;27;20043;-71
2022/07/04 04:14:58;;;;;;;0.82;0.20;;;20.70;59.50;;;;;;5115028;27;20516;-71
2022/07/04 04:17:24;;;;;;;0.50;0.20;;;20.70;59.50;;;;;;5115356;27;20091;-71
2022/07/04 04:19:49;;;;;;;0.30;0.20;;;20.70;59.50;;;;;;5115453;27;20062;-71
2022/07/04 04:22:15;;;;;;;0.70;0.10;;;20.70;59.40;;;;;;5115309;27;20039;-71
2022/07/04 04:24:41;;;;;;;0.30;0.17;;;20.70;59.50;;;;;;5115032;27;20035;-71
2022/07/04 04:27:06;;;;;;;0.75;0.10;;;20.70;59.50;;;;;;5115381;27;20461;-71
2022/07/04 04:29:35;;;;;;;0.30;0.20;;;20.70;59.50;;;;;;5133576;27;20035;-72
2022/07/04 04:32:00;;;;;;;0.30;0.20;;;20.70;59.40;;;;;;5115188;27;20046;-72
2022/07/04 04:34:26;;;;;;;0.25;0.10;;;20.70;59.40;;;;;;5131543;27;20042;-71
2022/07/04 04:36:52;;;;;;;0.20;0.10;;;20.70;59.40;;;;;;5133282;27;20122;-71
2022/07/04 04:39:17;;;;;;;0.40;0.20;;;20.70;59.40;;;;;;5133318;27;20077;-71
2022/07/04 04:41:43;;;;;;;0.43;0.10;;;20.70;59.40;;;;;;5115085;27;20035;-71
2022/07/04 04:44:08;;;;;;;1.05;0.20;;;20.70;59.30;;;;;;5106200;27;20038;-71
2022/07/04 04:46:34;;;;;;;0.40;0.20;;;20.70;59.30;;;;;;5138751;27;20050;-71
2022/07/04 04:49:00;;;;;;;0.75;0.20;;;20.70;59.30;;;;;;5152457;27;20057;-71
2022/07/04 04:51:25;;;;;;;0.38;0.10;;;20.70;59.30;;;;;;5152513;27;20042;-71
2022/07/04 04:53:51;;;;;;;0.50;0.43;;;20.70;59.30;;;;;;5152430;27;20043;-71
2022/07/04 04:56:17;;;;;;;3.00;0.20;;;20.70;59.30;;;;;;5153852;27;20043;-72
2022/07/04 04:58:42;;;;;;;0.70;0.30;;;20.70;59.30;;;;;;5153681;27;20126;-71
2022/07/04 05:01:08;;;;;;;0.20;0.10;;;20.70;59.30;;;;;;5152445;27;20083;-71
2022/07/04 05:03:34;;;;;;;0.38;0.20;;;20.70;59.40;;;;;;5152375;27;20073;-72
2022/07/04 05:06:00;;;;;;;0.65;0.20;;;20.70;59.30;;;;;;5152413;27;20052;-71
2022/07/04 05:08:26;;;;;;;0.63;0.10;;;20.70;59.30;;;;;;5152248;27;20046;-71
2022/07/04 05:10:52;;;;;;;0.68;0.20;;;20.70;59.30;;;;;;5152299;27;20045;-71
2022/07/04 05:13:18;;;;;;;0.40;0.10;;;20.70;59.30;;;;;;5152221;27;20038;-71
2022/07/04 05:15:44;;;;;;;0.32;0.10;;;20.70;59.30;;;;;;5152017;27;20413;-71
2022/07/04 05:18:10;;;;;;;1.20;0.20;;;20.70;59.30;;;;;;5153483;27;20040;-71
2022/07/04 05:20:35;;;;;;;0.95;0.20;;;20.70;59.30;;;;;;5152175;27;20397;-71
2022/07/04 05:23:04;;;;;;;0.70;0.25;;;20.70;59.20;;;;;;5153486;27;20087;-71
2022/07/04 05:25:30;;;;;;;1.83;0.20;;;20.70;59.20;;;;;;5152365;27;20039;-71
2022/07/04 05:27:59;;;;;;;0.77;0.20;;;20.70;59.30;;;;;;5153448;27;20539;-71
2022/07/04 05:30:25;;;;;;;0.63;0.10;;;20.70;59.20;;;;;;5153597;27;20072;-71
2022/07/04 05:32:50;;;;;;;0.20;0.10;;;20.70;59.30;;;;;;5152628;27;20102;-72
2022/07/04 05:35:16;;;;;;;1.35;0.28;;;20.70;59.20;;;;;;5135269;27;20057;-70
2022/07/04 05:37:43;;;;;;;0.40;0.20;;;20.70;59.30;;;;;;5142617;27;20038;-70
2022/07/04 05:40:09;;;;;;;1.05;0.40;;;20.60;59.10;;;;;;5141066;27;20105;-66
2022/07/04 05:42:35;;;;;;;0.80;0.30;;;20.70;59.10;;;;;;5143227;27;20482;-73
2022/07/04 05:45:01;;;;;;;0.73;0.10;;;20.70;59.50;;;;;;5163429;27;20034;-73
2022/07/04 05:47:27;;;;;;;2.42;0.20;;;20.70;59.50;;;;;;5138031;27;20122;-69
2022/07/04 05:49:52;;;;;;;0.65;0.10;;;20.70;59.50;;;;;;5120047;27;20039;-71
2022/07/04 05:52:18;;;;;;;0.77;0.10;;;20.80;59.70;;;;;;5148988;27;20071;-71
2022/07/04 05:54:44;;;;;;;2.50;0.20;;;20.90;59.60;;;;;;5166076;27;20034;-71
2022/07/04 05:57:09;;;;;;;0.43;0.17;;;20.90;59.40;;;;;;5148689;27;20031;-69
2022/07/04 05:59:35;;;;;;;1.85;0.20;;;20.90;59.60;;;;;;5157199;27;20038;-71
2022/07/04 06:02:01;;;;;;;2.03;0.25;;;20.90;59.60;;;;;;5158272;27;20159;-71
2022/07/04 06:04:26;;;;;;;1.08;0.10;;;20.90;59.90;;;;;;5137799;27;20042;-70
2022/07/04 06:06:52;;;;;;;0.52;0.30;;;21.00;60.00;;;;;;5137350;27;20037;-72
2022/07/04 06:09:18;;;;;;;4.60;0.20;;;21.00;59.90;;;;;;5145122;27;20041;-69
2022/07/04 06:11:44;;;;;;;2.30;0.15;;;21.00;60.10;;;;;;5141042;27;20029;-68
2022/07/04 06:14:10;;;;;;;2.80;0.20;;;21.10;60.10;;;;;;5141752;27;20050;-68
2022/07/04 06:16:35;;;;;;;4.45;0.20;;;21.10;60.30;;;;;;5146344;27;20489;-72
2022/07/04 06:19:01;;;;;;;1.58;0.22;;;21.10;60.20;;;;;;5145615;27;20045;-71
2022/07/04 06:21:26;;;;;;;0.82;0.13;;;21.10;60.30;;;;;;5144052;27;20086;-70
2022/07/04 06:23:52;;;;;;;1.60;0.10;;;21.10;60.20;;;;;;5161345;27;20041;-72
2022/07/04 06:26:18;;;;;;;2.40;0.22;;;21.20;60.10;;;;;;5141656;27;20401;-73
2022/07/04 06:28:44;;;;;;;5.70;0.40;;;21.20;60.20;;;;;;5139827;27;20035;-75
2022/07/04 06:31:11;;;;;;;2.80;0.30;;;21.20;60.40;;;;;;5134889;27;20570;-75
2022/07/04 06:35:44;;;;;;;1.58;0.20;;;21.20;60.70;;;;;;5144761;27;20063;-73
2022/07/04 06:36:23;;;;;;;2.58;0.10;;;21.30;60.60;;;;;;5140999;27;20047;-74
2022/07/04 06:38:49;;;;;;;2.60;0.20;;;21.30;60.40;;;;;;5165635;27;20449;-78
2022/07/04 06:41:15;;;;;;;3.25;0.30;;;21.30;60.90;;;;;;5145667;27;20117;-74
2022/07/04 06:43:44;;;;;;;1.27;0.20;;;21.30;60.20;;;;;;5143412;27;20046;-72
2022/07/04 06:46:10;;;;;;;10.13;0.40;;;21.40;60.40;;;;;;5144868;27;20069;-73
2022/07/04 06:48:36;;;;;;;3.40;0.20;;;21.40;60.40;;;;;;5144451;27;20065;-72
2022/07/04 06:51:02;;;;;;;5.95;0.30;;;21.40;60.10;;;;;;5144365;27;20363;-71
2022/07/04 06:53:27;;;;;;;3.45;0.20;;;21.40;59.90;;;;;;5142700;27;20090;-70
2022/07/04 06:55:53;;;;;;;2.25;0.20;;;21.50;59.90;;;;;;5144223;27;20046;-71
2022/07/04 06:58:18;;;;;;;2.63;0.20;;;21.50;60.00;;;;;;5161001;27;20112;-76
2022/07/04 07:00:44;;;;;;;3.72;0.30;;;21.50;60.30;;;;;;5121726;27;20168;-73
2022/07/04 07:03:10;;;;;;;4.40;0.20;;;21.50;60.50;;;;;;5124435;27;20029;-71
2022/07/04 07:05:36;;;;;;;6.05;0.20;;;21.60;60.70;;;;;;5118742;27;20045;-71
2022/07/04 07:08:04;;;;;;;1.63;0.20;;;21.60;60.60;;;;;;5121402;27;20127;-69
2022/07/04 07:10:32;;;;;;;3.83;0.20;;;21.60;60.50;;;;;;5123715;27;20050;-71
2022/07/04 07:12:58;;;;;;;1.38;0.20;;;21.60;60.30;;;;;;5119993;27;20117;-74
2022/07/04 07:15:24;;;;;;;1.90;0.10;;;21.60;60.00;;;;;;5125867;27;20153;-70
2022/07/04 07:17:49;;;;;;;3.50;0.35;;;21.60;59.80;;;;;;5121466;27;20122;-73
2022/07/04 07:20:15;;;;;;;4.85;0.60;;;21.70;59.90;;;;;;5123080;27;20041;-68
2022/07/04 07:22:42;;;;;;;5.00;0.65;;;21.70;59.90;;;;;;5133550;27;20474;-72
2022/07/04 07:25:10;;;;;;;6.82;0.30;;;21.70;59.90;;;;;;5128225;27;20039;-74
2022/07/04 07:27:36;;;;;;;2.65;0.30;;;21.70;60.10;;;;;;5138566;27;20035;-72
2022/07/04 07:30:03;;;;;;;2.90;0.20;;;21.80;60.10;;;;;;5135302;27;20466;-72
2022/07/04 07:32:29;;;;;;;4.40;0.85;;;21.80;60.00;;;;;;5126900;27;20064;-72
2022/07/04 07:34:54;;;;;;;8.15;0.50;;;21.80;60.10;;;;;;5127227;27;20038;-74
2022/07/04 07:37:21;;;;;;;5.25;0.52;;;21.90;60.40;;;;;;5122133;27;20041;-79
2022/07/04 07:39:50;;;;;;;3.33;0.40;;;21.80;60.20;;;;;;5137647;27;20131;-73
2022/07/04 07:42:16;;;;;;;5.38;0.40;;;21.80;60.40;;;;;;5124743;27;20034;-72
2022/07/04 07:44:45;;;;;;;6.20;0.30;;;21.80;60.30;;;;;;5142685;27;20115;-72
2022/07/04 07:47:15;;;;;;;7.72;0.30;;;21.80;60.10;;;;;;5137648;27;20065;-69
2022/07/04 07:49:41;;;;;;;3.45;1.23;;;21.90;60.40;;;;;;5118864;27;20763;-71
2022/07/04 07:52:07;;;;;;;2.13;0.50;;;21.90;60.30;;;;;;5114210;27;20051;-70
2022/07/04 07:54:33;;;;;;;3.40;0.30;;;22.00;60.80;;;;;;5111870;27;20505;-72
2022/07/04 07:56:58;;;;;;;5.93;0.50;;;22.00;60.70;;;;;;5132107;27;20035;-72
2022/07/04 07:59:24;;;;;;;3.22;0.30;;;21.90;60.80;;;;;;5110095;27;20181;-69
2022/07/04 08:01:50;;;;;;;6.45;0.80;;;22.00;60.80;;;;;;5116665;27;20482;-68
2022/07/04 08:04:46;;;;;;;1.77;0.40;;;22.00;60.80;;;;;;5138494;27;20045;-76
2022/07/04 08:07:04;;;;;;;4.60;0.40;;;22.10;60.80;;;;;;5114309;27;20047;-72
2022/07/04 08:09:30;;;;;;;1.33;0.30;;;22.10;60.90;;;;;;5112440;27;20135;-73
2022/07/04 08:11:56;;;;;;;2.63;0.30;;;22.10;60.50;;;;;;5119049;27;20140;-71
2022/07/04 08:14:22;;;;;;;8.25;0.30;;;22.20;60.50;;;;;;5134421;27;20122;-73
2022/07/04 08:16:47;;;;;;;2.47;0.20;;;22.20;60.00;;;;;;5134150;27;20042;-71
2022/07/04 08:19:13;;;;;;;2.90;0.20;;;22.20;60.20;;;;;;5129108;27;20042;-73
2022/07/04 08:21:38;;;;;;;3.25;0.40;;;22.20;60.10;;;;;;5119983;27;20034;-73
2022/07/04 08:24:04;;;;;;;3.05;0.20;;;22.20;60.20;;;;;;5141373;27;20042;-73
2022/07/04 08:26:30;;;;;;;1.50;0.13;;;22.20;60.10;;;;;;5122980;27;20047;-73
2022/07/04 08:28:59;;;;;;;2.38;0.20;;;22.20;59.90;;;;;;5142683;27;20052;-74
2022/07/04 08:31:26;;;;;;;3.33;0.20;;;22.20;59.80;;;;;;5119424;27;20050;-73
2022/07/04 08:33:52;;;;;;;1.90;0.10;;;22.20;59.70;;;;;;5126006;27;20057;-72
2022/07/04 08:36:18;;;;;;;2.58;1.10;;;22.20;59.70;;;;;;5112699;27;20054;-72
2022/07/04 08:38:44;;;;;;;3.85;0.30;;;22.20;59.70;;;;;;5135998;27;20091;-73
2022/07/04 08:41:11;;;;;;;4.68;0.30;;;22.30;59.80;;;;;;5135874;27;20031;-73
2022/07/04 08:43:39;;;;;;;2.15;0.20;;;22.30;59.70;;;;;;5126259;27;20058;-73
2022/07/04 08:46:05;;;;;;;3.00;0.20;;;22.40;59.60;;;;;;5117316;27;20095;-73
2022/07/04 08:48:32;;;;;;;2.75;0.20;;;22.40;59.60;;;;;;5134562;27;20054;-73
2022/07/04 08:51:16;;;;;;;3.78;0.28;;;22.40;59.50;;;;;;5119755;27;20045;-72
2022/07/04 08:53:50;;;;;;;3.88;0.50;;;22.40;59.50;;;;;;5121745;27;20038;-74
2022/07/04 08:59:05;;;;;;;4.78;0.20;;;22.40;59.60;;;;;;5122513;27;20138;-71
2022/07/04 09:01:32;;;;;;;3.03;0.35;;;22.40;59.40;;;;;;5119792;27;20566;-73
2022/07/04 09:03:58;;;;;;;2.60;0.30;;;22.40;59.30;;;;;;5121433;27;20087;-75
2022/07/04 09:06:26;;;;;;;2.33;0.22;;;22.40;59.30;;;;;;5115390;27;20051;-74
2022/07/04 09:08:53;;;;;;;2.67;0.35;;;22.40;59.50;;;;;;5117926;27;20557;-75
2022/07/04 09:11:18;;;;;;;1.63;0.20;;;22.40;59.50;;;;;;5119253;27;20103;-74
2022/07/04 09:13:48;;;;;;;2.35;0.30;;;22.60;59.30;;;;;;5115629;27;20431;-71
2022/07/04 09:16:14;;;;;;;3.80;0.57;;;22.80;58.80;;;;;;5121179;27;20047;-75
2022/07/04 09:18:39;;;;;;;3.65;0.22;;;22.90;58.30;;;;;;5117957;27;20035;-72
2022/07/04 09:21:07;;;;;;;1.92;0.10;;;23.10;57.90;;;;;;5115742;27;20039;-72
2022/07/04 09:23:35;;;;;;;3.38;0.20;;;23.20;57.50;;;;;;5112687;27;20043;-73
2022/07/04 09:26:18;;;;;;;6.65;0.30;;;23.40;57.30;;;;;;5135062;27;20042;-75
2022/07/04 09:28:50;;;;;;;4.72;0.40;;;23.40;57.10;;;;;;5123740;27;20069;-75
2022/07/04 09:31:19;;;;;;;5.47;0.32;;;23.40;56.90;;;;;;5124593;27;20706;-72
2022/07/04 09:36:32;;;;;;;5.15;0.20;;;23.50;56.80;;;;;;5113517;27;20875;-72
2022/07/04 09:47:29;;;;;;;4.78;0.63;;;23.50;56.70;;;;;;5107525;27;20420;-72
2022/07/04 09:50:16;;;;;;;5.13;0.57;;;23.60;56.20;;;;;;5111351;27;20866;-71
2022/07/04 09:55:33;;;;;;;8.07;0.35;;;23.60;56.20;;;;;;5103776;27;20370;-67
2022/07/04 10:00:42;;;;;;;4.55;0.20;;;23.50;56.30;;;;;;5134628;27;1154233;-69
2022/07/04 10:08:44;;;;;;;5.53;0.30;;;23.60;55.90;;;;;;5053570;28;20422;-71
2022/07/04 10:11:11;;;;;;;1.80;0.20;;;23.70;55.70;;;;;;5035829;28;20041;-71
2022/07/04 10:13:38;;;;;;;4.13;0.30;;;23.70;56.30;;;;;;5055408;28;20048;-70
2022/07/04 10:16:04;;;;;;;3.42;0.30;;;23.70;55.70;;;;;;5072205;28;20138;-70
2022/07/04 10:18:30;;;;;;;1.80;0.20;;;23.70;55.60;;;;;;5051167;28;20131;-71
2022/07/04 10:20:57;;;;;;;3.00;0.20;;;23.70;55.50;;;;;;5035469;28;20156;-71
2022/07/04 10:23:23;;;;;;;2.80;0.20;;;23.70;55.50;;;;;;5044194;28;20053;-71
2022/07/04 10:25:50;;;;;;;3.20;0.52;;;23.60;55.50;;;;;;5046190;28;21634;-71
2022/07/04 10:28:18;;;;;;;3.65;0.20;;;23.60;56.30;;;;;;5083244;28;20037;-71
2022/07/04 10:30:47;;;;;;;0.65;0.10;;;23.50;55.50;;;;;;5029306;28;20045;-71
2022/07/04 10:33:15;;;;;;;0.88;0.30;;;23.50;55.50;;;;;;5034973;28;20037;-71
2022/07/04 10:36:02;;;;;;;0.28;0.10;;;23.50;55.50;;;;;;5066552;28;20051;-70
2022/07/04 10:41:08;;;;;;;1.85;0.20;;;23.50;55.50;;;;;;5147018;27;1171196;-70
2022/07/04 10:48:53;;;;;;;1.25;0.30;;;23.40;55.40;;;;;;5109832;27;1233521;-68
2022/07/04 10:51:42;;;;;;;0.60;0.10;;;23.40;55.40;;;;;;5130634;27;20036;-68
2022/07/04 10:54:10;;;;;;;1.52;0.20;;;23.40;55.30;;;;;;5115176;27;20038;-69
2022/07/04 10:56:42;;;;;;;1.13;0.10;;;23.40;55.10;;;;;;5132701;27;20556;-69
2022/07/04 10:59:12;;;;;;;1.88;0.10;;;23.40;54.70;;;;;;5117778;27;20586;-68
2022/07/04 11:01:37;;;;;;;1.00;0.10;;;23.50;54.50;;;;;;5112431;27;20050;-69
2022/07/04 11:04:04;;;;;;;1.83;0.10;;;23.40;54.40;;;;;;5117234;27;20031;-68
2022/07/04 11:09:19;;;;;;;2.40;0.15;;;23.50;54.20;;;;;;5111980;27;1170533;-68
2022/07/04 11:14:47;;;;;;;0.90;0.20;;;23.50;53.70;;;;;;5117805;27;20435;-67
2022/07/04 11:20:00;;;;;;;1.23;0.17;;;23.50;53.20;;;;;;5061646;28;20453;-67
2022/07/04 11:22:26;;;;;;;0.43;0.10;;;23.50;53.00;;;;;;5066720;28;20068;-67
2022/07/04 11:24:53;;;;;;;0.38;0.10;;;23.50;53.00;;;;;;5060479;28;20068;-68
2022/07/04 11:27:22;;;;;;;1.20;0.10;;;23.50;52.80;;;;;;5075102;28;20048;-67
2022/07/04 11:29:55;;;;;;;0.22;0.08;;;23.50;52.80;;;;;;5088801;28;20431;-67
2022/07/04 11:32:29;;;;;;;1.48;0.20;;;23.50;52.70;;;;;;5073978;28;20079;-67
2022/07/04 11:34:55;;;;;;;1.08;0.20;;;23.50;52.60;;;;;;5073435;28;20071;-67
2022/07/04 11:37:21;;;;;;;0.98;0.13;;;23.50;52.50;;;;;;5058965;28;20041;-67
2022/07/04 11:45:44;;;;;;;1.00;0.28;;;23.50;52.40;;;;;;5059743;28;20053;-67
2022/07/04 11:48:09;;;;;;;0.80;0.10;;;23.50;52.30;;;;;;5058896;28;20377;-67
2022/07/04 11:50:35;;;;;;;0.38;0.10;;;23.50;52.30;;;;;;5065495;28;20043;-67
2022/07/04 11:53:04;;;;;;;0.75;0.10;;;23.50;52.30;;;;;;5061104;28;20028;-67
2022/07/04 11:55:29;;;;;;;1.15;0.10;;;23.50;52.30;;;;;;5068295;28;20625;-67
2022/07/04 11:57:58;;;;;;;0.30;0.10;;;23.50;52.30;;;;;;5061153;28;20045;-67
2022/07/04 12:00:27;;;;;;;0.40;0.10;;;23.50;52.20;;;;;;5061868;28;20041;-67
2022/07/04 12:02:58;;;;;;;0.50;0.10;;;23.50;52.20;;;;;;5075354;28;20091;-67
2022/07/04 12:05:23;;;;;;;0.50;0.10;;;23.50;52.10;;;;;;5069950;28;20056;-67
2022/07/04 12:07:49;;;;;;;0.57;0.10;;;23.50;52.00;;;;;;5062617;28;20048;-67
2022/07/04 12:10:18;;;;;;;0.90;0.10;;;23.50;52.00;;;;;;5054232;28;20059;-67
2022/07/04 12:15:42;;;;;;;0.30;0.10;;;23.60;52.00;;;;;;5116032;27;1155767;-67
2022/07/04 12:21:11;;;;;;;1.15;0.17;;;23.60;51.90;;;;;;5097855;27;20385;-67
2022/07/04 12:23:39;;;;;;;1.58;0.10;;;23.60;51.90;;;;;;5062439;28;20044;-66
2022/07/04 12:26:05;;;;;;;0.68;0.10;;;23.60;51.90;;;;;;5069254;28;20105;-66
2022/07/04 12:28:37;;;;;;;0.85;0.20;;;23.60;51.90;;;;;;5060733;28;20106;-67
2022/07/04 12:31:04;;;;;;;0.60;0.10;;;23.60;51.80;;;;;;5058557;28;20040;-67
2022/07/04 12:33:29;;;;;;;0.88;0.20;;;23.60;51.80;;;;;;5065810;28;20083;-67
2022/07/04 12:36:00;;;;;;;0.63;0.10;;;23.60;51.80;;;;;;5066166;28;20040;-67
2022/07/04 12:41:15;;;;;;;0.98;0.10;;;23.60;51.80;;;;;;5059097;28;20481;-67
2022/07/04 12:46:36;;;;;;;1.58;0.30;;;23.70;51.80;;;;;;5115937;27;20359;-66
2022/07/04 12:49:02;;;;;;;0.35;0.10;;;23.70;51.70;;;;;;5098080;28;20047;-67
2022/07/04 12:51:30;;;;;;;0.55;0.10;;;23.60;51.60;;;;;;5096626;28;20055;-67
2022/07/04 12:53:57;;;;;;;1.70;0.10;;;23.70;51.60;;;;;;5097051;28;20534;-68
2022/07/04 12:56:41;;;;;;;0.68;0.13;;;23.70;51.60;;;;;;5101226;28;20055;-66
2022/07/04 12:59:10;;;;;;;1.15;0.10;;;23.70;51.50;;;;;;5100362;28;20051;-66
2022/07/04 13:01:36;;;;;;;1.15;0.10;;;23.70;51.40;;;;;;5100946;28;20055;-68
2022/07/04 13:04:02;;;;;;;0.70;0.10;;;23.70;51.20;;;;;;5110316;28;20090;-67
2022/07/04 13:06:28;;;;;;;0.90;0.10;;;23.70;51.30;;;;;;5099180;28;20042;-68
2022/07/04 13:08:56;;;;;;;0.43;0.10;;;23.70;51.20;;;;;;5099937;28;20078;-67
2022/07/04 13:14:13;;;;;;;2.40;0.20;;;23.80;51.00;;;;;;5099474;28;20050;-68
2022/07/04 13:16:39;;;;;;;0.63;0.20;;;23.80;50.80;;;;;;5097332;28;20146;-68
2022/07/04 13:19:05;;;;;;;1.30;0.10;;;23.90;50.80;;;;;;5099724;28;20122;-67
2022/07/04 13:21:30;;;;;;;1.40;0.10;;;23.90;50.60;;;;;;5100433;28;20035;-68
2022/07/04 13:23:56;;;;;;;0.50;0.10;;;23.90;50.30;;;;;;5109959;28;20112;-68
2022/07/04 13:26:22;;;;;;;1.98;0.25;;;23.90;50.10;;;;;;5096613;28;20028;-67
2022/07/04 13:28:47;;;;;;;4.13;0.10;;;23.90;50.00;;;;;;5096541;28;20047;-68
2022/07/04 13:31:14;;;;;;;0.95;0.10;;;23.90;50.00;;;;;;5103370;28;20751;-68
2022/07/04 13:33:40;;;;;;;0.47;0.10;;;23.90;49.90;;;;;;5096012;28;20451;-68
2022/07/04 13:36:06;;;;;;;1.00;0.10;;;24.00;49.90;;;;;;5102807;28;20065;-68
2022/07/04 13:38:31;;;;;;;0.63;0.10;;;24.00;49.80;;;;;;5095478;28;20944;-69
2022/07/04 13:41:00;;;;;;;1.13;0.17;;;24.00;49.60;;;;;;5096732;28;20048;-67
2022/07/04 13:43:27;;;;;;;3.55;0.10;;;24.00;49.60;;;;;;5098583;28;20040;-68
2022/07/04 13:45:56;;;;;;;1.75;0.08;;;24.00;49.50;;;;;;5098232;27;20046;-69
2022/07/04 13:48:22;;;;;;;1.25;0.30;;;24.00;49.50;;;;;;5100200;28;20035;-68
2022/07/04 13:50:47;;;;;;;2.70;0.20;;;24.10;50.30;;;;;;5100353;28;20077;-69